createdAt,value
2023-05-07T00:00:14.418Z,47.82
2023-05-07T00:00:45.842Z,47.90
2023-05-07T00:01:18.231Z,47.47
2023-05-07T00:01:50.862Z,47.49
2023-05-07T00:02:22.237Z,47.82
2023-05-07T00:02:53.757Z,47.78
2023-05-07T00:03:25.329Z,47.48
2023-05-07T00:03:57.013Z,47.89
2023-05-07T00:04:28.507Z,47.70
2023-05-07T00:05:00.167Z,47.76
2023-05-07T00:05:31.595Z,47.64
2023-05-07T00:06:02.872Z,47.65
2023-05-07T00:06:34.150Z,47.57
2023-05-07T00:07:05.694Z,47.76
2023-05-07T00:07:37.002Z,47.80
2023-05-07T00:08:08.452Z,47.56
2023-05-07T00:08:39.812Z,47.80
2023-05-07T00:09:11.091Z,47.75
2023-05-07T00:09:42.359Z,47.74
2023-05-07T00:10:13.907Z,47.78
2023-05-07T00:10:45.466Z,48.12
2023-05-07T00:11:16.731Z,47.91
2023-05-07T00:11:47.994Z,47.92
2023-05-07T00:12:19.251Z,48.14
2023-05-07T00:12:50.539Z,48.27
2023-05-07T00:13:21.907Z,48.27
2023-05-07T00:13:53.298Z,48.04
2023-05-07T00:14:24.558Z,48.34
2023-05-07T00:14:55.829Z,48.27
2023-05-07T00:15:27.087Z,48.44
2023-05-07T00:15:58.387Z,48.26
2023-05-07T00:16:29.741Z,48.34
2023-05-07T00:17:01.050Z,48.63
2023-05-07T00:17:33.355Z,48.27
2023-05-07T00:18:04.748Z,48.22
2023-05-07T00:18:36.096Z,48.28
2023-05-07T00:19:07.383Z,48.26
2023-05-07T00:19:38.650Z,48.40
2023-05-07T00:20:10.296Z,48.44
2023-05-07T00:20:41.767Z,48.05
2023-05-07T00:21:13.052Z,47.93
2023-05-07T00:21:44.351Z,48.02
2023-05-07T00:22:16.106Z,47.75
2023-05-07T00:22:47.459Z,48.02
2023-05-07T00:23:18.740Z,47.88
2023-05-07T00:23:49.995Z,48.20
2023-05-07T00:24:21.338Z,48.02
2023-05-07T00:24:52.618Z,47.96
2023-05-07T00:25:23.894Z,48.23
2023-05-07T00:25:55.193Z,48.07
2023-05-07T00:26:26.480Z,47.91
2023-05-07T00:26:57.757Z,47.86
2023-05-07T00:27:29.049Z,47.62
2023-05-07T00:28:00.322Z,47.84
2023-05-07T00:28:31.664Z,48.04
2023-05-07T00:29:02.961Z,48.10
2023-05-07T00:29:34.274Z,47.81
2023-05-07T00:30:05.839Z,47.96
2023-05-07T00:30:37.106Z,47.79
2023-05-07T00:31:08.372Z,47.98
2023-05-07T00:31:39.663Z,47.73
2023-05-07T00:32:11.004Z,47.50
2023-05-07T00:32:42.406Z,47.44
2023-05-07T00:33:13.691Z,47.89
2023-05-07T00:33:44.952Z,47.85
2023-05-07T00:34:16.250Z,47.83
2023-05-07T00:34:47.540Z,47.92
2023-05-07T00:35:18.803Z,48.12
2023-05-07T00:35:50.137Z,47.74
2023-05-07T00:36:21.426Z,47.79
2023-05-07T00:36:52.712Z,47.60
2023-05-07T00:37:24.169Z,47.95
2023-05-07T00:37:55.454Z,47.76
2023-05-07T00:38:26.756Z,48.04
2023-05-07T00:38:58.155Z,47.87
2023-05-07T00:39:29.444Z,48.02
2023-05-07T00:40:00.694Z,47.77
2023-05-07T00:40:31.963Z,47.79
2023-05-07T00:41:03.244Z,47.83
2023-05-07T00:41:34.496Z,47.84
2023-05-07T00:42:05.789Z,47.87
2023-05-07T00:42:37.046Z,47.56
2023-05-07T00:43:08.371Z,47.74
2023-05-07T00:43:39.667Z,47.72
2023-05-07T00:44:10.959Z,47.82
2023-05-07T00:44:42.278Z,47.67
2023-05-07T00:45:14.235Z,47.78
2023-05-07T00:45:45.561Z,47.92
2023-05-07T00:46:16.944Z,47.78
2023-05-07T00:46:48.381Z,47.73
2023-05-07T00:47:19.672Z,47.88
2023-05-07T00:47:50.994Z,47.98
2023-05-07T00:48:22.360Z,47.88
2023-05-07T00:48:53.648Z,47.83
2023-05-07T00:49:29.371Z,47.78
2023-05-07T00:50:00.654Z,47.77
2023-05-07T00:50:32.338Z,47.70
2023-05-07T00:51:03.707Z,47.91
2023-05-07T00:51:35.034Z,47.63
2023-05-07T00:52:10.146Z,47.74
2023-05-07T00:52:41.444Z,47.86
2023-05-07T00:53:12.783Z,47.84
2023-05-07T00:53:44.121Z,47.74
2023-05-07T00:54:15.449Z,47.81
2023-05-07T00:54:46.786Z,47.60
2023-05-07T00:55:18.136Z,48.07
2023-05-07T00:55:49.418Z,47.89
2023-05-07T00:56:23.221Z,47.82
2023-05-07T00:56:54.852Z,47.94
2023-05-07T00:57:26.144Z,47.49
2023-05-07T00:57:57.446Z,47.78
2023-05-07T00:58:28.803Z,47.67
2023-05-07T00:59:00.260Z,47.92
2023-05-07T00:59:32.443Z,47.64
2023-05-07T01:00:07.361Z,47.60
2023-05-07T01:00:38.846Z,47.97
2023-05-07T01:01:10.424Z,47.88
2023-05-07T01:01:41.860Z,47.69
2023-05-07T01:02:13.173Z,47.63
2023-05-07T01:02:44.502Z,47.71
2023-05-07T01:03:16.292Z,47.64
2023-05-07T01:03:48.073Z,47.69
2023-05-07T01:04:19.822Z,47.59
2023-05-07T01:04:51.390Z,47.91
2023-05-07T01:05:23.352Z,48.06
2023-05-07T01:05:54.682Z,47.70
2023-05-07T01:06:26.655Z,47.77
2023-05-07T01:06:58.538Z,47.66
2023-05-07T01:07:30.704Z,48.03
2023-05-07T01:08:02.217Z,47.74
2023-05-07T01:08:33.506Z,47.74
2023-05-07T01:09:04.820Z,47.72
2023-05-07T01:09:36.197Z,48.08
2023-05-07T01:10:07.717Z,47.80
2023-05-07T01:10:39.023Z,47.94
2023-05-07T01:11:10.347Z,47.62
2023-05-07T01:11:41.676Z,47.69
2023-05-07T01:12:12.955Z,47.80
2023-05-07T01:12:44.230Z,47.69
2023-05-07T01:13:15.589Z,48.10
2023-05-07T01:13:47.441Z,47.68
2023-05-07T01:14:18.784Z,47.79
2023-05-07T01:14:50.076Z,47.71
2023-05-07T01:15:21.390Z,47.82
2023-05-07T01:15:52.670Z,47.81
2023-05-07T01:16:23.979Z,47.63
2023-05-07T01:16:55.328Z,47.75
2023-05-07T01:17:26.701Z,48.10
2023-05-07T01:17:58.095Z,48.06
2023-05-07T01:18:31.982Z,48.02
2023-05-07T01:19:03.248Z,48.05
2023-05-07T01:19:34.624Z,47.80
2023-05-07T01:20:06.360Z,47.76
2023-05-07T01:20:37.660Z,47.79
2023-05-07T01:21:08.965Z,47.72
2023-05-07T01:21:40.224Z,47.94
2023-05-07T01:22:11.891Z,48.00
2023-05-07T01:22:43.245Z,47.75
2023-05-07T01:23:14.491Z,47.65
2023-05-07T01:23:46.007Z,47.71
2023-05-07T01:24:17.307Z,47.73
2023-05-07T01:24:48.644Z,47.56
2023-05-07T01:25:20.009Z,47.71
2023-05-07T01:25:54.597Z,48.02
2023-05-07T01:26:25.921Z,47.96
2023-05-07T01:26:57.192Z,47.76
2023-05-07T01:27:28.655Z,47.68
2023-05-07T01:27:59.907Z,47.74
2023-05-07T01:28:31.166Z,47.66
2023-05-07T01:29:02.446Z,47.88
2023-05-07T01:29:33.748Z,48.11
2023-05-07T01:30:05.668Z,47.80
2023-05-07T01:30:36.946Z,47.36
2023-05-07T01:31:08.320Z,47.88
2023-05-07T01:31:39.807Z,47.82
2023-05-07T01:32:11.194Z,47.82
2023-05-07T01:32:48.357Z,47.74
2023-05-07T01:33:20.346Z,47.39
2023-05-07T01:33:51.641Z,48.00
2023-05-07T01:34:22.920Z,47.98
2023-05-07T01:34:54.213Z,47.93
2023-05-07T01:35:26.052Z,47.84
2023-05-07T01:35:57.339Z,48.00
2023-05-07T01:36:28.853Z,47.77
2023-05-07T01:37:00.117Z,47.61
2023-05-07T01:37:31.398Z,47.65
2023-05-07T01:38:03.080Z,47.63
2023-05-07T01:38:34.339Z,47.51
2023-05-07T01:39:05.634Z,47.64
2023-05-07T01:39:36.893Z,47.83
2023-05-07T01:40:08.659Z,47.57
2023-05-07T01:40:40.204Z,47.66
2023-05-07T01:41:12.134Z,47.63
2023-05-07T01:41:43.873Z,47.68
2023-05-07T01:42:15.136Z,47.55
2023-05-07T01:42:46.385Z,47.61
2023-05-07T01:43:17.666Z,47.55
2023-05-07T01:43:49.240Z,47.79
2023-05-07T01:44:20.524Z,47.72
2023-05-07T01:44:51.778Z,47.72
2023-05-07T01:45:23.043Z,47.82
2023-05-07T01:45:54.391Z,47.83
2023-05-07T01:46:25.745Z,47.63
2023-05-07T01:46:57.725Z,47.92
2023-05-07T01:47:29.053Z,47.71
2023-05-07T01:48:00.466Z,47.91
2023-05-07T01:48:31.844Z,47.55
2023-05-07T01:49:03.196Z,47.61
2023-05-07T01:49:34.481Z,47.70
2023-05-07T01:50:08.516Z,47.80
2023-05-07T01:50:39.852Z,47.64
2023-05-07T01:51:11.169Z,47.64
2023-05-07T01:51:42.475Z,47.57
2023-05-07T01:52:13.774Z,47.28
2023-05-07T01:52:45.061Z,47.91
2023-05-07T01:53:16.456Z,47.78
2023-05-07T01:53:47.756Z,47.49
2023-05-07T01:54:19.055Z,47.75
2023-05-07T01:54:50.361Z,47.75
2023-05-07T01:55:21.659Z,47.28
2023-05-07T01:55:53.000Z,47.40
2023-05-07T01:56:24.758Z,47.77
2023-05-07T01:56:56.832Z,47.49
2023-05-07T01:57:28.167Z,47.48
2023-05-07T01:57:59.408Z,47.42
2023-05-07T01:58:30.973Z,47.29
2023-05-07T01:59:02.302Z,47.56
2023-05-07T01:59:33.708Z,47.80
2023-05-07T02:00:05.279Z,47.25
2023-05-07T02:00:36.690Z,47.75
2023-05-07T02:01:08.034Z,47.76
2023-05-07T02:01:39.359Z,47.74
2023-05-07T02:02:10.818Z,47.50
2023-05-07T02:02:42.257Z,47.92
2023-05-07T02:03:13.741Z,47.49
2023-05-07T02:03:45.178Z,47.51
2023-05-07T02:04:16.655Z,47.61
2023-05-07T02:04:48.109Z,47.62
2023-05-07T02:05:19.444Z,47.50
2023-05-07T02:05:50.730Z,47.68
2023-05-07T02:06:22.113Z,47.64
2023-05-07T02:06:53.453Z,47.67
2023-05-07T02:07:24.773Z,47.56
2023-05-07T02:07:56.064Z,47.53
2023-05-07T02:08:27.385Z,47.46
2023-05-07T02:08:58.648Z,47.52
2023-05-07T02:09:29.908Z,47.63
2023-05-07T02:10:01.229Z,47.79
2023-05-07T02:10:32.502Z,47.68
2023-05-07T02:11:03.834Z,47.44
2023-05-07T02:11:35.226Z,47.43
2023-05-07T02:12:06.542Z,47.54
2023-05-07T02:12:37.860Z,47.49
2023-05-07T02:13:09.294Z,47.80
2023-05-07T02:13:40.613Z,47.49
2023-05-07T02:14:11.908Z,47.46
2023-05-07T02:14:43.217Z,47.50
2023-05-07T02:15:14.501Z,47.56
2023-05-07T02:15:45.801Z,47.33
2023-05-07T02:16:17.132Z,47.46
2023-05-07T02:16:48.580Z,47.46
2023-05-07T02:17:19.947Z,47.66
2023-05-07T02:18:06.962Z,47.68
2023-05-07T02:18:38.258Z,47.96
2023-05-07T02:19:09.551Z,47.76
2023-05-07T02:19:40.877Z,47.47
2023-05-07T02:20:12.504Z,47.47
2023-05-07T02:20:43.986Z,47.63
2023-05-07T02:21:15.316Z,47.44
2023-05-07T02:21:46.607Z,47.73
2023-05-07T02:22:18.007Z,47.77
2023-05-07T02:22:49.283Z,47.86
2023-05-07T02:23:20.608Z,47.76
2023-05-07T02:23:51.952Z,47.72
2023-05-07T02:24:23.209Z,47.75
2023-05-07T02:24:54.527Z,47.56
2023-05-07T02:25:25.817Z,47.66
2023-05-07T02:25:57.134Z,47.79
2023-05-07T02:26:28.399Z,47.83
2023-05-07T02:26:59.653Z,47.89
2023-05-07T02:27:30.941Z,47.93
2023-05-07T02:28:02.230Z,47.78
2023-05-07T02:28:33.513Z,47.84
2023-05-07T02:29:04.792Z,47.50
2023-05-07T02:29:36.081Z,47.63
2023-05-07T02:30:07.646Z,47.52
2023-05-07T02:30:38.934Z,47.63
2023-05-07T02:31:10.250Z,47.54
2023-05-07T02:31:41.569Z,47.44
2023-05-07T02:32:13.020Z,47.67
2023-05-07T02:32:44.394Z,47.75
2023-05-07T02:33:15.767Z,47.60
2023-05-07T02:33:47.052Z,47.48
2023-05-07T02:34:18.337Z,47.37
2023-05-07T02:34:51.141Z,47.47
2023-05-07T02:35:22.462Z,47.62
2023-05-07T02:35:53.765Z,47.47
2023-05-07T02:36:25.066Z,47.53
2023-05-07T02:36:56.326Z,47.35
2023-05-07T02:37:27.585Z,47.69
2023-05-07T02:37:58.876Z,47.22
2023-05-07T02:38:30.163Z,47.78
2023-05-07T02:39:01.429Z,47.69
2023-05-07T02:39:32.728Z,47.61
2023-05-07T02:40:04.158Z,47.28
2023-05-07T02:40:35.441Z,47.65
2023-05-07T02:41:06.715Z,47.77
2023-05-07T02:41:38.060Z,47.48
2023-05-07T02:42:09.331Z,47.53
2023-05-07T02:42:40.619Z,47.61
2023-05-07T02:43:11.913Z,47.56
2023-05-07T02:43:43.210Z,47.36
2023-05-07T02:44:14.479Z,47.69
2023-05-07T02:44:45.764Z,47.71
2023-05-07T02:45:17.134Z,47.33
2023-05-07T02:45:48.466Z,47.39
2023-05-07T02:46:19.818Z,47.72
2023-05-07T02:46:51.131Z,47.48
2023-05-07T02:47:22.455Z,47.59
2023-05-07T02:47:53.912Z,47.61
2023-05-07T02:48:25.252Z,47.41
2023-05-07T02:48:56.545Z,47.44
2023-05-07T02:49:27.826Z,47.74
2023-05-07T02:49:59.110Z,47.44
2023-05-07T02:50:30.438Z,47.69
2023-05-07T02:51:01.731Z,47.25
2023-05-07T02:51:33.027Z,47.45
2023-05-07T02:52:04.298Z,47.60
2023-05-07T02:52:35.615Z,47.38
2023-05-07T02:53:06.882Z,47.56
2023-05-07T02:53:38.146Z,47.37
2023-05-07T02:54:09.480Z,47.71
2023-05-07T02:54:40.783Z,47.67
2023-05-07T02:55:12.136Z,47.31
2023-05-07T02:55:43.419Z,47.42
2023-05-07T02:56:14.712Z,47.36
2023-05-07T02:56:45.972Z,47.58
2023-05-07T02:57:17.228Z,47.37
2023-05-07T02:57:48.510Z,47.39
2023-05-07T02:58:19.795Z,47.38
2023-05-07T02:58:51.090Z,47.44
2023-05-07T02:59:22.382Z,47.41
2023-05-07T02:59:53.665Z,47.35
2023-05-07T03:00:25.116Z,47.47
2023-05-07T03:00:56.474Z,47.39
2023-05-07T03:01:27.932Z,47.54
2023-05-07T03:01:59.234Z,47.36
2023-05-07T03:02:30.541Z,47.58
2023-05-07T03:03:01.905Z,47.33
2023-05-07T03:03:33.238Z,47.49
2023-05-07T03:04:04.603Z,47.29
2023-05-07T03:04:36.072Z,47.39
2023-05-07T03:05:07.616Z,47.53
2023-05-07T03:05:38.887Z,47.47
2023-05-07T03:06:10.206Z,47.51
2023-05-07T03:06:41.775Z,47.51
2023-05-07T03:07:13.079Z,47.34
2023-05-07T03:07:44.365Z,47.66
2023-05-07T03:08:15.646Z,47.41
2023-05-07T03:08:46.913Z,47.54
2023-05-07T03:09:18.332Z,47.24
2023-05-07T03:09:49.622Z,47.35
2023-05-07T03:10:20.888Z,47.36
2023-05-07T03:10:52.172Z,47.54
2023-05-07T03:11:23.479Z,47.17
2023-05-07T03:11:54.782Z,47.25
2023-05-07T03:12:26.073Z,47.11
2023-05-07T03:12:57.460Z,47.25
2023-05-07T03:13:28.843Z,47.10
2023-05-07T03:14:00.184Z,47.40
2023-05-07T03:14:31.447Z,47.06
2023-05-07T03:15:02.750Z,47.54
2023-05-07T03:15:34.081Z,47.14
2023-05-07T03:16:05.486Z,47.52
2023-05-07T03:16:36.768Z,47.33
2023-05-07T03:17:08.003Z,47.24
2023-05-07T03:17:39.493Z,47.23
2023-05-07T03:18:10.891Z,47.46
2023-05-07T03:18:42.248Z,47.26
2023-05-07T03:19:13.581Z,47.17
2023-05-07T03:19:44.861Z,47.48
2023-05-07T03:20:16.379Z,47.24
2023-05-07T03:20:49.012Z,47.49
2023-05-07T03:21:20.347Z,47.21
2023-05-07T03:21:51.834Z,47.50
2023-05-07T03:22:23.178Z,47.50
2023-05-07T03:22:54.418Z,47.49
2023-05-07T03:23:25.719Z,47.19
2023-05-07T03:23:57.118Z,47.36
2023-05-07T03:24:28.387Z,47.25
2023-05-07T03:24:59.666Z,47.32
2023-05-07T03:25:30.992Z,47.32
2023-05-07T03:26:02.316Z,47.47
2023-05-07T03:26:33.641Z,47.50
2023-05-07T03:27:04.929Z,47.18
2023-05-07T03:27:36.313Z,47.52
2023-05-07T03:28:07.629Z,47.26
2023-05-07T03:28:38.959Z,47.33
2023-05-07T03:29:10.281Z,47.36
2023-05-07T03:29:41.541Z,47.18
2023-05-07T03:30:13.143Z,47.42
2023-05-07T03:30:44.654Z,47.23
2023-05-07T03:31:15.955Z,47.46
2023-05-07T03:31:47.351Z,47.51
2023-05-07T03:32:18.698Z,47.37
2023-05-07T03:32:50.112Z,47.58
2023-05-07T03:33:21.424Z,47.49
2023-05-07T03:33:53.312Z,47.47
2023-05-07T03:34:24.590Z,47.44
2023-05-07T03:34:55.865Z,47.19
2023-05-07T03:35:27.219Z,47.24
2023-05-07T03:35:58.547Z,47.49
2023-05-07T03:36:29.909Z,47.53
2023-05-07T03:37:01.224Z,47.50
2023-05-07T03:37:32.534Z,47.44
2023-05-07T03:38:03.859Z,47.23
2023-05-07T03:38:35.162Z,47.18
2023-05-07T03:39:06.462Z,47.27
2023-05-07T03:39:37.761Z,47.25
2023-05-07T03:40:09.376Z,47.42
2023-05-07T03:40:40.797Z,47.36
2023-05-07T03:41:12.412Z,47.36
2023-05-07T03:41:43.678Z,47.36
2023-05-07T03:42:15.366Z,47.31
2023-05-07T03:42:46.629Z,47.18
2023-05-07T03:43:17.919Z,47.46
2023-05-07T03:43:49.326Z,47.07
2023-05-07T03:44:20.608Z,47.11
2023-05-07T03:44:51.898Z,47.44
2023-05-07T03:45:23.225Z,47.20
2023-05-07T03:45:54.541Z,47.48
2023-05-07T03:46:25.844Z,47.31
2023-05-07T03:46:57.146Z,47.11
2023-05-07T03:47:28.519Z,47.14
2023-05-07T03:47:59.929Z,47.32
2023-05-07T03:48:31.214Z,47.19
2023-05-07T03:49:02.510Z,47.38
2023-05-07T03:49:33.827Z,47.37
2023-05-07T03:50:05.299Z,47.26
2023-05-07T03:50:36.720Z,47.02
2023-05-07T03:51:08.016Z,47.14
2023-05-07T03:51:39.350Z,47.40
2023-05-07T03:52:10.622Z,47.48
2023-05-07T03:52:41.946Z,47.20
2023-05-07T03:53:13.257Z,47.43
2023-05-07T03:53:44.553Z,47.32
2023-05-07T03:54:15.904Z,47.29
2023-05-07T03:54:47.190Z,47.29
2023-05-07T03:55:18.485Z,47.28
2023-05-07T03:55:49.877Z,47.09
2023-05-07T03:56:21.288Z,47.11
2023-05-07T03:56:52.568Z,47.11
2023-05-07T03:57:23.880Z,47.04
2023-05-07T03:57:55.202Z,47.22
2023-05-07T03:58:26.484Z,47.08
2023-05-07T03:58:57.752Z,47.20
2023-05-07T03:59:29.040Z,47.15
2023-05-07T04:00:00.312Z,47.24
2023-05-07T04:00:31.607Z,46.90
2023-05-07T04:01:02.993Z,47.17
2023-05-07T04:01:34.355Z,47.31
2023-05-07T04:02:05.920Z,47.12
2023-05-07T04:02:37.389Z,46.99
2023-05-07T04:03:08.922Z,47.26
2023-05-07T04:03:40.475Z,47.26
2023-05-07T04:04:11.835Z,47.17
2023-05-07T04:04:43.131Z,47.29
2023-05-07T04:05:14.887Z,47.24
2023-05-07T04:05:46.212Z,47.10
2023-05-07T04:06:17.490Z,47.22
2023-05-07T04:06:48.762Z,47.19
2023-05-07T04:07:20.040Z,47.18
2023-05-07T04:07:51.301Z,47.14
2023-05-07T04:08:22.592Z,47.17
2023-05-07T04:08:53.883Z,47.27
2023-05-07T04:09:25.185Z,47.03
2023-05-07T04:09:56.461Z,47.07
2023-05-07T04:10:27.731Z,47.40
2023-05-07T04:10:59.119Z,47.35
2023-05-07T04:11:30.435Z,47.16
2023-05-07T04:12:01.705Z,47.22
2023-05-07T04:12:33.006Z,47.27
2023-05-07T04:13:04.311Z,47.08
2023-05-07T04:13:35.626Z,47.11
2023-05-07T04:14:07.015Z,47.02
2023-05-07T04:14:38.279Z,47.37
2023-05-07T04:15:09.794Z,47.38
2023-05-07T04:15:41.076Z,47.33
2023-05-07T04:16:12.377Z,47.21
2023-05-07T04:16:43.819Z,47.12
2023-05-07T04:17:15.196Z,47.07
2023-05-07T04:17:46.579Z,47.36
2023-05-07T04:18:17.902Z,47.10
2023-05-07T04:18:49.161Z,47.20
2023-05-07T04:19:20.429Z,47.35
2023-05-07T04:19:51.720Z,47.24
2023-05-07T04:20:23.017Z,47.33
2023-05-07T04:20:54.317Z,47.38
2023-05-07T04:21:25.620Z,47.12
2023-05-07T04:21:56.935Z,47.44
2023-05-07T04:22:28.263Z,47.39
2023-05-07T04:22:59.583Z,47.21
2023-05-07T04:23:30.872Z,47.27
2023-05-07T04:24:03.833Z,47.35
2023-05-07T04:24:35.110Z,47.30
2023-05-07T04:25:06.715Z,47.12
2023-05-07T04:25:37.965Z,47.36
2023-05-07T04:26:09.254Z,47.36
2023-05-07T04:26:40.505Z,47.44
2023-05-07T04:27:11.843Z,47.24
2023-05-07T04:27:43.324Z,47.47
2023-05-07T04:28:14.650Z,47.09
2023-05-07T04:28:45.912Z,47.01
2023-05-07T04:29:17.202Z,47.38
2023-05-07T04:29:48.465Z,47.17
2023-05-07T04:30:19.700Z,47.43
2023-05-07T04:30:51.018Z,47.37
2023-05-07T04:31:22.970Z,47.49
2023-05-07T04:31:54.501Z,47.23
2023-05-07T04:32:25.896Z,47.20
2023-05-07T04:32:57.285Z,47.18
2023-05-07T04:33:28.703Z,47.04
2023-05-07T04:33:59.998Z,47.51
2023-05-07T04:34:31.289Z,47.49
2023-05-07T04:35:02.616Z,47.40
2023-05-07T04:35:33.870Z,47.25
2023-05-07T04:36:05.325Z,47.41
2023-05-07T04:36:36.623Z,47.36
2023-05-07T04:37:07.928Z,47.24
2023-05-07T04:37:39.212Z,47.55
2023-05-07T04:38:10.525Z,47.36
2023-05-07T04:38:41.900Z,47.46
2023-05-07T04:39:13.198Z,47.46
2023-05-07T04:39:44.484Z,47.26
2023-05-07T04:40:15.828Z,47.52
2023-05-07T04:40:47.170Z,47.17
2023-05-07T04:41:18.491Z,47.18
2023-05-07T04:41:49.768Z,47.50
2023-05-07T04:42:21.044Z,47.06
2023-05-07T04:42:52.340Z,47.46
2023-05-07T04:43:23.709Z,47.29
2023-05-07T04:43:54.962Z,47.11
2023-05-07T04:44:26.311Z,47.50
2023-05-07T04:44:57.553Z,47.47
2023-05-07T04:45:28.829Z,47.24
2023-05-07T04:46:00.214Z,47.52
2023-05-07T04:46:31.569Z,47.19
2023-05-07T04:47:02.899Z,47.26
2023-05-07T04:47:34.161Z,47.18
2023-05-07T04:48:05.708Z,47.26
2023-05-07T04:48:37.005Z,47.47
2023-05-07T04:49:08.303Z,47.26
2023-05-07T04:49:39.615Z,47.32
2023-05-07T04:50:11.195Z,47.46
2023-05-07T04:50:42.652Z,47.23
2023-05-07T04:51:13.979Z,47.36
2023-05-07T04:51:45.375Z,47.05
2023-05-07T04:52:16.630Z,47.18
2023-05-07T04:52:47.926Z,47.16
2023-05-07T04:53:19.227Z,47.43
2023-05-07T04:53:50.546Z,47.35
2023-05-07T04:54:21.844Z,47.24
2023-05-07T04:54:53.148Z,47.41
2023-05-07T04:55:24.542Z,47.22
2023-05-07T04:55:56.367Z,47.09
2023-05-07T04:56:28.612Z,47.05
2023-05-07T04:56:59.896Z,47.25
2023-05-07T04:57:31.187Z,47.39
2023-05-07T04:58:02.461Z,47.13
2023-05-07T04:58:33.812Z,47.04
2023-05-07T04:59:05.110Z,47.10
2023-05-07T04:59:36.368Z,47.37
2023-05-07T05:00:08.387Z,47.07
2023-05-07T05:00:39.854Z,47.06
2023-05-07T05:01:11.131Z,47.29
2023-05-07T05:01:42.508Z,47.32
2023-05-07T05:02:13.820Z,47.12
2023-05-07T05:02:45.214Z,47.07
2023-05-07T05:03:16.665Z,47.44
2023-05-07T05:03:48.110Z,47.26
2023-05-07T05:04:19.464Z,47.37
2023-05-07T05:04:50.774Z,47.27
2023-05-07T05:05:22.078Z,47.12
2023-05-07T05:05:53.362Z,47.19
2023-05-07T05:06:24.627Z,47.39
2023-05-07T05:06:55.885Z,47.34
2023-05-07T05:07:27.180Z,47.10
2023-05-07T05:07:58.473Z,47.24
2023-05-07T05:08:30.570Z,47.33
2023-05-07T05:09:01.862Z,47.44
2023-05-07T05:09:33.153Z,47.10
2023-05-07T05:10:05.911Z,47.08
2023-05-07T05:10:37.166Z,47.31
2023-05-07T05:11:08.462Z,47.12
2023-05-07T05:11:39.725Z,47.39
2023-05-07T05:12:11.017Z,46.97
2023-05-07T05:12:42.292Z,47.10
2023-05-07T05:13:13.756Z,47.05
2023-05-07T05:13:45.159Z,47.37
2023-05-07T05:14:16.432Z,47.21
2023-05-07T05:14:47.691Z,47.36
2023-05-07T05:15:19.034Z,47.17
2023-05-07T05:15:50.631Z,47.15
2023-05-07T05:16:22.027Z,47.25
2023-05-07T05:16:53.351Z,47.04
2023-05-07T05:17:24.638Z,47.26
2023-05-07T05:17:56.002Z,47.32
2023-05-07T05:18:27.299Z,46.96
2023-05-07T05:18:58.554Z,47.11
2023-05-07T05:19:29.877Z,47.34
2023-05-07T05:20:01.197Z,47.44
2023-05-07T05:20:32.549Z,47.37
2023-05-07T05:21:03.863Z,47.25
2023-05-07T05:21:35.189Z,47.06
2023-05-07T05:22:06.477Z,47.13
2023-05-07T05:22:37.846Z,47.35
2023-05-07T05:23:09.176Z,47.06
2023-05-07T05:23:40.449Z,47.11
2023-05-07T05:24:11.764Z,47.42
2023-05-07T05:24:43.079Z,47.05
2023-05-07T05:25:14.432Z,47.28
2023-05-07T05:25:45.764Z,47.44
2023-05-07T05:26:17.032Z,47.52
2023-05-07T05:26:48.289Z,47.44
2023-05-07T05:27:19.595Z,47.06
2023-05-07T05:27:50.931Z,47.37
2023-05-07T05:28:22.239Z,47.29
2023-05-07T05:28:53.496Z,47.47
2023-05-07T05:29:24.744Z,47.44
2023-05-07T05:29:56.182Z,47.21
2023-05-07T05:30:27.454Z,47.30
2023-05-07T05:30:58.773Z,47.14
2023-05-07T05:31:30.147Z,47.29
2023-05-07T05:32:01.560Z,47.14
2023-05-07T05:32:34.669Z,47.55
2023-05-07T05:33:06.180Z,47.27
2023-05-07T05:33:37.509Z,47.14
2023-05-07T05:34:08.804Z,47.38
2023-05-07T05:34:40.125Z,47.42
2023-05-07T05:35:11.455Z,47.46
2023-05-07T05:35:42.845Z,47.28
2023-05-07T05:36:14.283Z,47.53
2023-05-07T05:36:45.562Z,47.29
2023-05-07T05:37:16.852Z,47.33
2023-05-07T05:37:48.122Z,47.46
2023-05-07T05:38:19.652Z,47.26
2023-05-07T05:38:50.958Z,47.38
2023-05-07T05:39:22.266Z,47.47
2023-05-07T05:39:53.717Z,47.49
2023-05-07T05:40:25.049Z,47.50
2023-05-07T05:40:56.822Z,47.31
2023-05-07T05:41:28.190Z,47.50
2023-05-07T05:41:59.473Z,47.48
2023-05-07T05:42:30.750Z,47.38
2023-05-07T05:43:02.061Z,47.40
2023-05-07T05:43:33.404Z,47.31
2023-05-07T05:44:04.688Z,47.31
2023-05-07T05:44:35.966Z,47.31
2023-05-07T05:45:07.603Z,47.17
2023-05-07T05:45:38.892Z,47.42
2023-05-07T05:46:10.207Z,47.25
2023-05-07T05:46:41.558Z,47.38
2023-05-07T05:47:12.947Z,47.70
2023-05-07T05:47:44.289Z,47.46
2023-05-07T05:48:15.651Z,47.20
2023-05-07T05:48:46.958Z,47.32
2023-05-07T05:49:18.218Z,47.49
2023-05-07T05:49:49.495Z,47.37
2023-05-07T05:50:20.785Z,47.29
2023-05-07T05:50:52.131Z,47.17
2023-05-07T05:51:23.420Z,47.25
2023-05-07T05:51:54.719Z,47.15
2023-05-07T05:52:26.029Z,47.37
2023-05-07T05:52:57.311Z,47.50
2023-05-07T05:53:28.615Z,47.44
2023-05-07T05:53:59.905Z,47.38
2023-05-07T05:54:31.191Z,47.63
2023-05-07T05:55:02.481Z,47.27
2023-05-07T05:55:33.776Z,47.18
2023-05-07T05:56:05.238Z,47.58
2023-05-07T05:56:37.206Z,47.58
2023-05-07T05:57:08.438Z,47.37
2023-05-07T05:57:39.726Z,47.35
2023-05-07T05:58:11.017Z,47.47
2023-05-07T05:58:42.399Z,47.51
2023-05-07T05:59:13.716Z,47.64
2023-05-07T05:59:44.998Z,47.36
2023-05-07T06:00:16.374Z,47.56
2023-05-07T06:00:47.669Z,47.60
2023-05-07T06:01:19.213Z,47.51
2023-05-07T06:01:50.536Z,47.62
2023-05-07T06:02:21.954Z,47.13
2023-05-07T06:02:53.359Z,47.70
2023-05-07T06:03:24.665Z,47.28
2023-05-07T06:03:55.991Z,47.49
2023-05-07T06:04:27.364Z,47.42
2023-05-07T06:04:58.731Z,47.44
2023-05-07T06:05:30.187Z,47.37
2023-05-07T06:06:01.538Z,47.49
2023-05-07T06:06:32.809Z,47.42
2023-05-07T06:07:04.090Z,47.54
2023-05-07T06:07:35.460Z,47.75
2023-05-07T06:08:06.711Z,47.59
2023-05-07T06:08:38.045Z,47.64
2023-05-07T06:09:09.333Z,47.40
2023-05-07T06:09:40.635Z,47.57
2023-05-07T06:10:12.065Z,47.70
2023-05-07T06:10:43.615Z,47.62
2023-05-07T06:11:14.901Z,47.36
2023-05-07T06:11:46.193Z,47.61
2023-05-07T06:12:17.520Z,47.36
2023-05-07T06:12:48.909Z,47.31
2023-05-07T06:13:20.309Z,47.57
2023-05-07T06:13:51.673Z,47.49
2023-05-07T06:14:22.950Z,47.34
2023-05-07T06:14:54.240Z,47.39
2023-05-07T06:15:25.510Z,47.69
2023-05-07T06:15:56.772Z,47.59
2023-05-07T06:16:28.183Z,47.76
2023-05-07T06:16:59.520Z,47.65
2023-05-07T06:17:30.830Z,47.54
2023-05-07T06:18:02.165Z,47.58
2023-05-07T06:18:33.484Z,47.36
2023-05-07T06:19:04.797Z,47.70
2023-05-07T06:19:36.084Z,47.69
2023-05-07T06:20:07.649Z,47.63
2023-05-07T06:20:38.938Z,47.24
2023-05-07T06:21:10.725Z,47.46
2023-05-07T06:21:41.998Z,47.49
2023-05-07T06:22:13.348Z,47.44
2023-05-07T06:22:44.643Z,47.52
2023-05-07T06:23:17.913Z,47.48
2023-05-07T06:23:49.508Z,47.44
2023-05-07T06:24:20.840Z,47.92
2023-05-07T06:24:52.144Z,47.64
2023-05-07T06:25:23.436Z,47.18
2023-05-07T06:25:54.705Z,47.50
2023-05-07T06:26:26.000Z,47.55
2023-05-07T06:26:57.492Z,47.59
2023-05-07T06:27:28.845Z,47.64
2023-05-07T06:28:00.143Z,47.41
2023-05-07T06:28:34.183Z,47.54
2023-05-07T06:29:05.512Z,47.66
2023-05-07T06:29:36.789Z,47.62
2023-05-07T06:30:08.593Z,47.52
2023-05-07T06:30:39.995Z,47.46
2023-05-07T06:31:17.200Z,47.35
2023-05-07T06:31:48.735Z,47.62
2023-05-07T06:32:20.045Z,47.74
2023-05-07T06:32:51.362Z,47.83
2023-05-07T06:33:22.647Z,47.48
2023-05-07T06:33:55.220Z,47.67
2023-05-07T06:34:26.575Z,47.57
2023-05-07T06:34:57.838Z,47.53
2023-05-07T06:35:29.085Z,47.35
2023-05-07T06:36:00.389Z,47.64
2023-05-07T06:36:31.714Z,47.74
2023-05-07T06:37:03.118Z,47.23
2023-05-07T06:37:34.420Z,47.31
2023-05-07T06:38:05.704Z,47.29
2023-05-07T06:38:36.980Z,47.24
2023-05-07T06:39:08.245Z,47.36
2023-05-07T06:39:39.563Z,47.50
2023-05-07T06:40:11.404Z,47.36
2023-05-07T06:40:42.893Z,47.87
2023-05-07T06:41:14.184Z,47.46
2023-05-07T06:41:45.479Z,47.68
2023-05-07T06:42:16.837Z,47.10
2023-05-07T06:42:48.135Z,47.49
2023-05-07T06:43:19.454Z,47.44
2023-05-07T06:43:50.747Z,47.62
2023-05-07T06:44:22.066Z,47.70
2023-05-07T06:44:53.376Z,47.50